map of PEU home
PEU - Airport
Location
City:  Puerto Lenpira, Gracias a Dios, Honduras
ICAO:MHPL
IATA:PEU

Details
Type:Airport (Aerodrome, Airfield)
Latitude:1515'44"N (15.262247)
Longitude:8346'52"W (-83.781171)
Datum:WGS 1984
Elevation:25 ft (8 m)
Variation:3.00W (WMM2015 magnetic declination)
-0.14 annual change
Runways:1
Longest:5006 × 131 ft (1526 × 40 m)

Time
Time Zone:UTC-6
Local Time:

Weather
METAR:MHPL 170000Z 01010KT 9999 SCT026TCU FEW028CB 26/25 Q1013 RESH CB N NE NW TCU ALL VCSH NE S W HZ

Related Locations
Nearby:
Farthest:CCK: 12215 mi / 19658 km
West Island (Pulau Panjang) [Cocos (Keeling) Islands], CC

Find:

   beyond  
but within

Other Information
Maps:
NOTAMs:
Links:
Sources:

  
  • flag of Honduras
  

Sectional Chart

Flight Planning
at skyvector.com

Satellite Image

Google Maps Satellite view

 

Copyright © 2004-2018 Karl L. Swartz. All rights reserved.
The Great Circle Mapper name and logo are trademarks of the Great Circle Mapper.
All other trademarks mentioned herein belong to their respective owners.
Please see credits for attibutions and further copyright information.

  Follow gcmap on Facebook Follow gcmap on Twitter Follow gcmap on Google+ GCmap on LinkedIn

hCard Microformat

Geo Microformat